Time;durP1;ratioP1;P1;durP2;ratioP2;P2;SDS_P1;SDS_P2;PMS_P1;PMS_P2;Temp;Humidity;BMP_temperature;BMP_pressure;BME280_temperature;BME280_humidity;BME280_pressure;Samples;Min_cycle;Max_cycle;Signal;HPM_P1;HPM_P2
2022/03/01 00:02:24;;;;;;;25.92;12.75;;;;;;;-1.75;63.53;102818.28;5042130;28;20135;-59
2022/03/01 00:04:49;;;;;;;30.38;15.95;;;;;;;-1.71;63.60;102813.34;5034631;28;20432;-59
2022/03/01 00:07:15;;;;;;;22.05;12.48;;;;;;;-1.70;63.45;102813.44;5043573;28;20045;-58
2022/03/01 00:09:41;;;;;;;26.08;13.05;;;;;;;-1.68;63.35;102811.84;5037501;28;20480;-59
2022/03/01 00:12:09;;;;;;;29.63;13.75;;;;;;;-1.71;63.24;102814.25;5050247;28;20045;-59
2022/03/01 00:14:35;;;;;;;30.17;14.65;;;;;;;-1.78;63.39;102804.31;5038404;28;20120;-59
2022/03/01 00:17:00;;;;;;;27.77;13.48;;;;;;;-1.77;63.53;102809.56;5036599;28;20149;-59
2022/03/01 00:19:29;;;;;;;24.15;12.65;;;;;;;-1.76;63.63;102806.19;5043825;28;20047;-58
2022/03/01 00:21:56;;;;;;;27.63;13.30;;;;;;;-1.72;63.49;102802.13;5037535;28;20039;-61
2022/03/01 00:24:21;;;;;;;32.55;14.45;;;;;;;-1.78;63.35;102802.63;5043661;28;20087;-61
2022/03/01 00:26:47;;;;;;;25.63;13.25;;;;;;;-1.80;63.96;102804.19;5035966;28;20041;-59
2022/03/01 00:29:14;;;;;;;23.45;11.60;;;;;;;-1.81;63.78;102797.25;5045934;28;20484;-59
2022/03/01 00:31:40;;;;;;;32.08;15.63;;;;;;;-1.74;64.04;102802.03;5038835;28;20064;-58
2022/03/01 00:34:05;;;;;;;25.35;13.15;;;;;;;-1.73;63.66;102796.06;5051160;28;20029;-59
2022/03/01 00:36:31;;;;;;;33.33;13.95;;;;;;;-1.71;63.78;102793.63;5047856;28;20047;-58
2022/03/01 00:38:56;;;;;;;30.10;14.68;;;;;;;-1.67;64.10;102787.88;5041270;28;20053;-58
2022/03/01 00:41:22;;;;;;;31.48;14.68;;;;;;;-1.65;64.04;102793.13;5053270;28;20492;-58
2022/03/01 00:43:47;;;;;;;22.48;11.32;;;;;;;-1.65;64.06;102790.53;5052005;28;20069;-58
2022/03/01 00:46:13;;;;;;;25.52;12.90;;;;;;;-1.66;63.85;102783.59;5020572;28;20025;-59
2022/03/01 00:48:38;;;;;;;34.95;18.00;;;;;;;-1.67;63.87;102794.72;5046873;28;20041;-58
2022/03/01 00:51:04;;;;;;;64.57;29.92;;;;;;;-1.68;63.82;102780.91;5039938;28;20086;-58
2022/03/01 00:53:29;;;;;;;94.38;42.22;;;;;;;-1.70;64.08;102779.03;5037899;28;20464;-58
2022/03/01 00:55:54;;;;;;;85.60;39.97;;;;;;;-1.74;64.32;102772.78;5041426;28;20112;-59
2022/03/01 00:58:20;;;;;;;81.60;36.63;;;;;;;-1.74;64.35;102783.97;5037151;28;20144;-58
2022/03/01 01:00:45;;;;;;;64.25;31.33;;;;;;;-1.74;64.40;102778.84;5048938;28;20040;-59
2022/03/01 01:03:11;;;;;;;53.47;26.58;;;;;;;-1.73;64.60;102783.19;5052443;28;20044;-59
2022/03/01 01:05:36;;;;;;;57.33;32.20;;;;;;;-1.74;64.36;102776.25;5050415;28;20365;-59
2022/03/01 01:08:02;;;;;;;42.58;22.23;;;;;;;-1.71;64.46;102780.72;5046701;28;20472;-58
2022/03/01 01:10:28;;;;;;;40.88;20.60;;;;;;;-1.71;64.58;102783.31;5033410;28;20033;-59
2022/03/01 01:12:53;;;;;;;35.28;18.73;;;;;;;-1.68;64.70;102783.47;5027228;28;20041;-58
2022/03/01 01:15:20;;;;;;;31.38;15.98;;;;;;;-1.69;64.89;102783.41;5052476;28;20041;-58
2022/03/01 01:17:46;;;;;;;30.95;15.05;;;;;;;-1.75;64.81;102781.31;5033966;28;20044;-58
2022/03/01 01:20:13;;;;;;;32.10;16.10;;;;;;;-1.79;65.07;102780.22;5041108;28;20033;-58
2022/03/01 01:22:41;;;;;;;31.08;15.18;;;;;;;-1.84;65.05;102791.88;5037198;28;20037;-58
2022/03/01 01:25:21;;;;;;;38.33;17.85;;;;;;;-1.96;66.42;102790.16;5035580;28;20124;-59
2022/03/01 01:27:55;;;;;;;34.45;17.05;;;;;;;-2.00;66.67;102784.81;5034248;28;20033;-59
2022/03/01 01:30:24;;;;;;;31.95;15.90;;;;;;;-2.05;66.60;102785.28;5042638;28;20041;-59
2022/03/01 01:32:50;;;;;;;30.55;15.18;;;;;;;-2.10;67.09;102790.13;5046503;28;20092;-58
2022/03/01 01:35:19;;;;;;;33.63;14.90;;;;;;;-2.05;67.00;102787.88;5045175;28;20115;-58
2022/03/01 01:37:44;;;;;;;31.67;15.70;;;;;;;-2.01;66.86;102788.19;5047018;28;20072;-59
2022/03/01 01:40:15;;;;;;;28.60;15.75;;;;;;;-2.06;67.27;102783.53;5041910;28;20061;-58
2022/03/01 01:42:41;;;;;;;32.60;16.60;;;;;;;-2.00;66.93;102781.34;5032462;28;20033;-58
2022/03/01 01:45:07;;;;;;;31.80;16.70;;;;;;;-1.96;66.71;102774.72;5033869;28;20053;-58
2022/03/01 01:47:33;;;;;;;29.67;15.95;;;;;;;-1.92;66.84;102782.75;5035919;28;20049;-59
2022/03/01 01:49:59;;;;;;;32.60;15.68;;;;;;;-1.92;67.16;102776.69;5033540;28;20098;-59
2022/03/01 01:52:25;;;;;;;29.75;14.20;;;;;;;-1.88;67.11;102784.72;5017956;28;20040;-58
2022/03/01 01:54:55;;;;;;;30.10;15.30;;;;;;;-1.86;67.44;102770.28;5050961;28;20048;-58
2022/03/01 01:57:22;;;;;;;28.08;13.23;;;;;;;-1.82;67.36;102780.00;5032622;28;20678;-58
2022/03/01 01:59:48;;;;;;;22.88;11.80;;;;;;;-1.81;67.20;102786.06;5028542;28;20473;-58
2022/03/01 02:02:16;;;;;;;22.25;11.73;;;;;;;-1.82;67.38;102780.00;5034960;28;20041;-59
2022/03/01 02:04:43;;;;;;;23.98;11.52;;;;;;;-1.84;67.40;102776.41;5046432;28;20045;-58
2022/03/01 02:07:09;;;;;;;20.20;10.80;;;;;;;-1.83;67.13;102775.66;5035402;28;20046;-58
2022/03/01 02:09:35;;;;;;;24.77;12.82;;;;;;;-1.75;66.75;102766.75;5038442;28;20117;-59
2022/03/01 02:12:02;;;;;;;24.27;11.77;;;;;;;-1.74;66.54;102768.53;5024381;28;20143;-58
2022/03/01 02:14:32;;;;;;;19.48;10.07;;;;;;;-1.71;66.20;102772.09;5032392;28;20063;-59
2022/03/01 02:17:00;;;;;;;20.02;10.45;;;;;;;-1.73;66.23;102767.72;5044825;28;20028;-58
2022/03/01 02:19:27;;;;;;;22.27;11.57;;;;;;;-1.75;66.16;102758.13;5051252;28;20036;-59
2022/03/01 02:21:57;;;;;;;20.50;11.07;;;;;;;-1.80;65.92;102764.63;5032335;28;20041;-60
2022/03/01 02:24:24;;;;;;;22.17;11.18;;;;;;;-1.84;66.18;102760.94;5043238;28;20084;-59
2022/03/01 02:26:56;;;;;;;21.85;11.63;;;;;;;-1.86;66.17;102757.41;5031675;28;20121;-59
2022/03/01 02:29:22;;;;;;;23.40;11.38;;;;;;;-1.86;66.28;102762.56;5035886;28;20041;-58
2022/03/01 02:31:49;;;;;;;20.45;11.18;;;;;;;-1.83;66.53;102767.03;5018964;28;20163;-59
2022/03/01 02:34:15;;;;;;;18.27;9.82;;;;;;;-1.83;66.25;102762.75;5032511;28;20045;-57
2022/03/01 02:36:40;;;;;;;25.92;12.38;;;;;;;-1.87;65.90;102762.47;5046645;28;20087;-57
2022/03/01 02:39:06;;;;;;;21.83;11.45;;;;;;;-1.88;65.74;102753.81;5052531;28;20060;-58
2022/03/01 02:41:31;;;;;;;25.05;12.02;;;;;;;-1.87;65.70;102754.72;5035020;28;20045;-59
2022/03/01 02:43:57;;;;;;;23.10;11.70;;;;;;;-1.90;65.91;102760.56;5035796;28;20443;-59
2022/03/01 02:46:22;;;;;;;20.40;11.02;;;;;;;-1.97;66.31;102758.38;5036978;28;20052;-59
2022/03/01 02:48:49;;;;;;;22.27;11.40;;;;;;;-1.91;66.25;102753.63;5047035;28;20125;-58
2022/03/01 02:51:14;;;;;;;22.70;10.68;;;;;;;-1.91;66.31;102753.63;5046461;28;20049;-58
2022/03/01 02:53:40;;;;;;;21.30;10.07;;;;;;;-1.90;66.09;102749.38;5048235;28;20025;-58
2022/03/01 02:56:05;;;;;;;25.63;12.27;;;;;;;-1.92;66.28;102756.97;5054785;28;20099;-58
2022/03/01 02:58:31;;;;;;;23.48;11.50;;;;;;;-2.06;66.32;102744.88;5057095;28;20032;-58
2022/03/01 03:00:56;;;;;;;24.63;12.02;;;;;;;-2.14;66.68;102743.47;5046459;28;20065;-59
2022/03/01 03:03:22;;;;;;;25.45;12.15;;;;;;;-2.18;67.15;102749.19;5037461;28;20037;-59
2022/03/01 03:05:47;;;;;;;24.55;12.68;;;;;;;-2.21;67.33;102751.56;5042565;28;20429;-59
2022/03/01 03:08:12;;;;;;;30.67;14.05;;;;;;;-2.21;67.27;102744.72;5051089;28;20060;-59
2022/03/01 03:10:38;;;;;;;21.45;11.45;;;;;;;-2.24;67.26;102747.97;5039116;28;20052;-59
2022/03/01 03:13:05;;;;;;;24.98;11.30;;;;;;;-2.26;67.50;102751.25;5035251;28;20029;-59
2022/03/01 03:15:31;;;;;;;23.83;11.82;;;;;;;-2.26;67.66;102752.13;5037175;28;20033;-59
2022/03/01 03:17:57;;;;;;;21.42;11.90;;;;;;;-2.27;67.94;102750.38;5053289;28;20025;-58
2022/03/01 03:20:23;;;;;;;24.02;12.13;;;;;;;-2.19;67.56;102749.97;5029315;28;20123;-59
2022/03/01 03:22:50;;;;;;;26.80;12.20;;;;;;;-2.26;67.50;102744.41;5042086;28;20025;-58
2022/03/01 03:25:15;;;;;;;23.05;12.18;;;;;;;-2.15;67.84;102741.69;5028901;28;20045;-59
2022/03/01 03:27:41;;;;;;;23.55;12.00;;;;;;;-2.10;67.68;102740.31;5040458;28;20400;-59
2022/03/01 03:30:08;;;;;;;19.30;10.50;;;;;;;-2.06;67.38;102738.03;5032019;28;20042;-60
2022/03/01 03:32:34;;;;;;;23.05;11.30;;;;;;;-2.19;68.31;102740.59;5035742;28;20033;-58
2022/03/01 03:35:03;;;;;;;28.38;14.10;;;;;;;-2.22;68.49;102730.06;5047369;28;20029;-58
2022/03/01 03:37:29;;;;;;;24.90;12.93;;;;;;;-2.14;68.23;102725.44;5035797;28;20156;-58
2022/03/01 03:39:54;;;;;;;28.17;13.05;;;;;;;-2.12;68.05;102721.25;5045662;28;20061;-59
2022/03/01 03:42:20;;;;;;;27.63;12.73;;;;;;;-2.12;68.22;102726.41;5042808;28;20033;-58
2022/03/01 03:44:46;;;;;;;27.45;13.23;;;;;;;-2.18;68.43;102726.91;5035959;28;20481;-58
2022/03/01 03:47:11;;;;;;;25.60;13.25;;;;;;;-2.22;68.76;102729.19;5053661;28;20046;-58
2022/03/01 03:49:37;;;;;;;22.20;11.20;;;;;;;-2.17;68.74;102726.09;5038435;28;20040;-58
2022/03/01 03:52:04;;;;;;;26.60;13.75;;;;;;;-2.08;68.20;102728.41;5023938;28;20043;-59
2022/03/01 03:54:30;;;;;;;27.08;13.40;;;;;;;-2.03;67.95;102729.63;5034715;28;20435;-60
2022/03/01 03:56:56;;;;;;;25.58;13.20;;;;;;;-2.02;68.34;102731.41;5020025;28;20037;-59
2022/03/01 03:59:22;;;;;;;23.85;11.95;;;;;;;-1.96;67.76;102720.59;5024619;28;20125;-57
2022/03/01 04:01:47;;;;;;;22.27;10.75;;;;;;;-2.01;68.05;102720.31;5036511;28;20033;-59
2022/03/01 04:04:13;;;;;;;21.90;12.63;;;;;;;-2.03;68.25;102709.91;5038661;28;20037;-58
2022/03/01 04:06:38;;;;;;;20.88;11.13;;;;;;;-2.11;68.30;102721.38;5035220;28;20124;-57
2022/03/01 04:09:05;;;;;;;23.73;11.85;;;;;;;-2.19;68.49;102708.75;5044940;28;20468;-57
2022/03/01 04:11:30;;;;;;;22.05;11.40;;;;;;;-2.20;68.31;102705.28;5052800;28;20051;-57
2022/03/01 04:13:57;;;;;;;19.27;10.88;;;;;;;-2.18;68.40;102705.41;5044916;28;20030;-58
2022/03/01 04:16:22;;;;;;;25.25;12.15;;;;;;;-2.17;68.12;102704.63;5042903;28;20045;-58
2022/03/01 04:18:48;;;;;;;22.92;12.43;;;;;;;-2.22;68.45;102698.28;5052318;28;20041;-57
2022/03/01 04:21:14;;;;;;;23.00;10.98;;;;;;;-2.18;68.18;102706.31;5045134;28;20128;-58
2022/03/01 04:23:40;;;;;;;20.40;10.93;;;;;;;-2.15;67.85;102697.91;5041734;28;20064;-58
2022/03/01 04:26:05;;;;;;;22.63;11.50;;;;;;;-2.13;67.90;102698.88;5046142;28;20033;-58
2022/03/01 04:28:31;;;;;;;21.02;10.95;;;;;;;-2.12;67.69;102691.22;5066384;28;20045;-58
2022/03/01 04:30:56;;;;;;;21.65;11.70;;;;;;;-2.13;67.76;102698.88;5036981;28;20029;-57
2022/03/01 04:33:22;;;;;;;21.42;10.40;;;;;;;-2.15;67.44;102696.22;5046170;28;20033;-57
2022/03/01 04:35:49;;;;;;;22.17;10.95;;;;;;;-2.21;68.01;102693.22;5050154;28;20079;-57
2022/03/01 04:38:15;;;;;;;27.15;12.63;;;;;;;-2.28;67.98;102698.72;5052820;28;20431;-58
2022/03/01 04:40:41;;;;;;;27.75;11.65;;;;;;;-2.28;68.01;102699.63;5050645;28;20025;-59
2022/03/01 04:43:06;;;;;;;24.48;12.43;;;;;;;-2.43;68.28;102695.13;5048640;28;20029;-60
2022/03/01 04:45:33;;;;;;;23.25;11.18;;;;;;;-2.36;68.36;102693.06;5039791;28;20050;-57
2022/03/01 04:47:59;;;;;;;26.55;11.80;;;;;;;-2.45;68.56;102694.13;5040923;28;20160;-59
2022/03/01 04:50:25;;;;;;;25.98;13.50;;;;;;;-2.44;68.47;102686.50;5034464;28;20037;-58
2022/03/01 04:52:51;;;;;;;29.80;14.18;;;;;;;-2.41;68.41;102686.72;5049901;28;20045;-59
2022/03/01 04:55:16;;;;;;;25.77;13.50;;;;;;;-2.47;68.52;102681.16;5035998;28;20151;-59
2022/03/01 04:57:43;;;;;;;24.38;12.77;;;;;;;-2.46;68.48;102682.94;5011928;28;20480;-59
2022/03/01 05:00:10;;;;;;;27.20;13.35;;;;;;;-2.55;68.74;102682.34;5037238;28;20032;-60
2022/03/01 05:02:41;;;;;;;32.60;15.00;;;;;;;-2.48;68.33;102684.50;5043390;28;20036;-59
2022/03/01 05:05:10;;;;;;;29.48;14.93;;;;;;;-2.48;68.36;102687.97;5037968;28;20044;-59
2022/03/01 05:07:40;;;;;;;25.67;13.63;;;;;;;-2.47;68.13;102683.75;5048647;28;20044;-59
2022/03/01 05:10:07;;;;;;;27.77;14.57;;;;;;;-2.49;67.90;102678.47;5037537;28;20029;-60
2022/03/01 05:12:43;;;;;;;28.80;13.73;;;;;;;-2.49;68.03;102681.03;5050636;28;20037;-59
2022/03/01 05:15:10;;;;;;;32.08;14.60;;;;;;;-2.47;67.93;102676.03;5038317;28;20548;-60
2022/03/01 05:17:35;;;;;;;26.38;14.40;;;;;;;-2.46;67.92;102675.22;5043897;28;20033;-59
2022/03/01 05:20:01;;;;;;;27.50;13.27;;;;;;;-2.43;67.98;102684.81;5029082;28;20118;-59
2022/03/01 05:22:27;;;;;;;25.20;13.35;;;;;;;-2.41;67.72;102679.00;5041740;28;20047;-59
2022/03/01 05:24:52;;;;;;;25.23;12.82;;;;;;;-2.38;67.70;102679.22;5037803;28;20037;-58
2022/03/01 05:27:18;;;;;;;30.02;14.00;;;;;;;-2.32;67.75;102679.59;5043861;28;20094;-59
2022/03/01 05:29:43;;;;;;;27.75;13.18;;;;;;;-2.30;67.47;102680.63;5052877;28;20036;-59
2022/03/01 05:32:09;;;;;;;26.45;13.75;;;;;;;-2.28;67.52;102672.97;5044282;28;20033;-59
2022/03/01 05:34:34;;;;;;;27.70;13.20;;;;;;;-2.25;67.19;102679.22;5053750;28;20033;-59
2022/03/01 05:36:59;;;;;;;28.20;13.52;;;;;;;-2.26;67.31;102677.44;5047206;28;20090;-58
2022/03/01 05:39:25;;;;;;;42.42;19.30;;;;;;;-2.26;67.15;102676.56;5045312;28;20041;-58
2022/03/01 05:41:50;;;;;;;44.00;19.20;;;;;;;-2.26;67.13;102684.28;5033124;28;20393;-57
2022/03/01 05:44:16;;;;;;;46.20;20.98;;;;;;;-2.25;67.28;102684.38;5041842;28;20037;-57
2022/03/01 05:46:41;;;;;;;36.70;19.65;;;;;;;-2.29;67.26;102689.22;5043366;28;20108;-59
2022/03/01 05:49:07;;;;;;;44.05;20.38;;;;;;;-2.34;67.58;102683.78;5007983;28;20504;-59
2022/03/01 05:51:33;;;;;;;34.30;16.90;;;;;;;-2.34;67.34;102688.94;5037950;28;20033;-59
2022/03/01 05:53:58;;;;;;;34.30;16.80;;;;;;;-2.33;67.47;102689.81;5028542;28;20029;-58
2022/03/01 05:56:24;;;;;;;30.63;14.88;;;;;;;-2.33;67.70;102692.38;5043203;28;20044;-58
2022/03/01 05:58:49;;;;;;;33.65;17.02;;;;;;;-2.28;67.88;102691.88;5044026;28;20025;-58
2022/03/01 06:01:15;;;;;;;35.58;17.98;;;;;;;-2.28;67.64;102689.31;5044177;28;20032;-58
2022/03/01 06:03:40;;;;;;;36.15;14.73;;;;;;;-2.22;67.53;102687.97;5007307;28;20040;-58
2022/03/01 06:06:06;;;;;;;28.23;14.98;;;;;;;-2.21;67.74;102695.78;5043586;28;20385;-58
2022/03/01 06:08:31;;;;;;;34.55;16.48;;;;;;;-2.19;67.92;102690.72;5010503;28;20037;-58
2022/03/01 06:10:57;;;;;;;31.83;15.38;;;;;;;-2.20;67.94;102702.72;5048462;28;20091;-57
2022/03/01 06:13:22;;;;;;;35.30;17.13;;;;;;;-2.16;67.81;102701.22;5040919;28;20480;-58
2022/03/01 06:15:48;;;;;;;27.85;13.70;;;;;;;-2.06;67.62;102704.53;5042064;28;20044;-59
2022/03/01 06:18:14;;;;;;;37.80;18.65;;;;;;;-1.90;67.37;102702.97;5027816;28;20120;-57
2022/03/01 06:20:40;;;;;;;34.78;18.88;;;;;;;-1.76;66.90;102697.03;5025448;28;20033;-58
2022/03/01 06:23:05;;;;;;;35.20;17.77;;;;;;;-1.67;66.37;102701.91;5031589;28;20059;-58
2022/03/01 06:25:31;;;;;;;30.77;15.52;;;;;;;-1.56;66.61;102695.75;5035236;28;20033;-58
2022/03/01 06:27:56;;;;;;;31.25;14.90;;;;;;;-1.46;66.36;102697.25;5040947;28;20477;-57
2022/03/01 06:30:23;;;;;;;31.55;16.60;;;;;;;-1.39;66.46;102699.44;5039479;28;20645;-57
2022/03/01 06:32:49;;;;;;;30.88;16.38;;;;;;;-1.28;66.39;102701.91;5043837;28;20036;-56
2022/03/01 06:35:14;;;;;;;28.63;16.80;;;;;;;-1.14;66.03;102691.53;5044127;28;20033;-58
2022/03/01 06:37:40;;;;;;;32.95;19.02;;;;;;;-0.97;66.01;102701.22;5048894;28;20104;-58
2022/03/01 06:40:06;;;;;;;37.58;19.63;;;;;;;-0.81;65.46;102703.94;5038688;28;20029;-57
2022/03/01 06:42:33;;;;;;;36.17;19.05;;;;;;;-0.60;65.00;102704.38;5017700;28;20112;-57
2022/03/01 06:44:58;;;;;;;34.20;18.98;;;;;;;-0.56;64.90;102689.94;5035550;28;20033;-58
2022/03/01 06:47:24;;;;;;;35.42;18.75;;;;;;;-0.46;64.56;102693.97;5036842;28;20040;-57
2022/03/01 06:49:49;;;;;;;34.28;18.20;;;;;;;-0.41;64.98;102696.03;5036982;28;20380;-55
2022/03/01 06:52:15;;;;;;;33.70;16.67;;;;;;;-0.34;64.26;102693.00;5035882;28;20103;-57
2022/03/01 06:54:40;;;;;;;24.15;13.85;;;;;;;-0.17;63.69;102695.69;5036857;28;20116;-57
2022/03/01 06:57:05;;;;;;;25.88;14.68;;;;;;;-0.12;63.83;102686.50;5036882;28;20037;-57
2022/03/01 06:59:31;;;;;;;25.95;15.27;;;;;;;0.08;63.51;102696.34;5035600;28;20033;-57
2022/03/01 07:01:57;;;;;;;36.63;18.98;;;;;;;0.14;62.71;102700.97;5036502;28;20442;-57
2022/03/01 07:04:22;;;;;;;35.53;19.08;;;;;;;0.24;62.45;102701.59;5036711;28;20037;-57
2022/03/01 07:06:48;;;;;;;30.58;17.10;;;;;;;0.30;62.23;102702.75;5036616;28;20057;-58
2022/03/01 07:09:14;;;;;;;33.90;18.05;;;;;;;0.37;62.03;102707.47;5036308;28;20037;-57
2022/03/01 07:11:39;;;;;;;29.98;17.15;;;;;;;0.40;61.71;102703.38;5036646;28;20041;-57
2022/03/01 07:14:04;;;;;;;26.88;15.50;;;;;;;0.46;61.29;102702.81;5036473;28;20033;-57
2022/03/01 07:16:30;;;;;;;27.35;16.10;;;;;;;0.45;60.75;102707.09;5036470;28;20083;-57
2022/03/01 07:18:55;;;;;;;28.17;15.45;;;;;;;0.55;60.64;102705.91;5036279;28;20041;-57
2022/03/01 07:21:21;;;;;;;28.58;17.10;;;;;;;0.64;60.10;102701.25;5042905;28;20029;-58
2022/03/01 07:23:47;;;;;;;28.45;13.43;;;;;;;0.82;60.08;102703.06;5038637;28;20037;-57
2022/03/01 07:26:15;;;;;;;30.42;16.38;;;;;;;0.93;59.53;102701.97;5046538;28;20057;-57
2022/03/01 07:28:40;;;;;;;30.38;15.27;;;;;;;1.04;59.21;102706.03;5039492;28;20500;-57
2022/03/01 07:31:11;;;;;;;27.35;15.40;;;;;;;1.20;59.44;102703.47;5044072;28;20038;-57
2022/03/01 07:33:38;;;;;;;29.55;16.92;;;;;;;1.42;59.04;102702.88;5044192;28;20045;-57
2022/03/01 07:36:04;;;;;;;30.42;16.25;;;;;;;1.56;59.13;102703.63;5038115;28;20027;-59
2022/03/01 07:38:30;;;;;;;28.90;16.27;;;;;;;1.65;58.33;102706.69;5038372;28;20034;-59
2022/03/01 07:40:57;;;;;;;27.38;15.98;;;;;;;1.83;57.96;102705.84;5037953;28;20033;-59
2022/03/01 07:43:22;;;;;;;28.92;15.43;;;;;;;1.85;57.21;102699.94;5043229;28;20044;-57
2022/03/01 07:45:48;;;;;;;30.95;16.33;;;;;;;1.84;56.51;102699.88;5043271;28;20041;-58
2022/03/01 07:48:14;;;;;;;32.20;17.75;;;;;;;2.03;56.87;102693.88;5024381;28;20053;-59
2022/03/01 07:50:40;;;;;;;28.77;17.35;;;;;;;2.07;56.36;102688.91;5042486;28;20036;-59
2022/03/01 07:53:05;;;;;;;27.20;12.35;;;;;;;2.07;56.19;102686.31;5022688;28;20045;-64
2022/03/01 07:55:31;;;;;;;24.23;12.70;;;;;;;2.28;55.48;102686.50;5045148;28;20040;-58
2022/03/01 07:57:56;;;;;;;18.23;10.88;;;;;;;2.50;55.61;102687.53;5040093;28;20107;-58
2022/03/01 08:00:24;;;;;;;26.60;11.63;;;;;;;2.50;55.51;102691.00;5021664;28;20065;-59
2022/03/01 08:02:49;;;;;;;19.08;10.77;;;;;;;2.59;54.79;102686.25;5037921;28;20037;-59
2022/03/01 08:05:15;;;;;;;21.58;11.75;;;;;;;2.75;55.04;102687.88;5051015;28;20048;-58
2022/03/01 08:07:40;;;;;;;22.05;12.20;;;;;;;2.82;54.59;102694.25;5046857;28;20099;-60
2022/03/01 08:10:06;;;;;;;18.83;9.90;;;;;;;2.97;54.35;102690.66;5012619;28;20087;-58
2022/03/01 08:12:31;;;;;;;18.83;10.32;;;;;;;2.98;54.23;102691.53;5025682;28;20087;-58
2022/03/01 08:14:57;;;;;;;19.95;11.45;;;;;;;3.06;54.05;102682.41;5034691;28;20731;-58
2022/03/01 08:17:22;;;;;;;23.33;11.13;;;;;;;3.09;53.89;102679.94;5051125;28;20057;-59
2022/03/01 08:19:48;;;;;;;22.70;10.70;;;;;;;3.15;53.59;102676.72;5044514;28;20378;-59
2022/03/01 08:22:14;;;;;;;20.70;10.88;;;;;;;3.18;53.54;102685.53;5046725;28;20029;-58
2022/03/01 08:24:40;;;;;;;17.98;9.50;;;;;;;3.33;53.28;102680.16;5039633;28;20068;-58
2022/03/01 08:27:05;;;;;;;20.42;11.55;;;;;;;3.40;53.02;102668.34;5036484;28;20041;-58
2022/03/01 08:29:30;;;;;;;19.45;10.13;;;;;;;3.55;52.92;102674.22;5043349;28;20108;-58
2022/03/01 08:31:56;;;;;;;18.05;8.80;;;;;;;3.72;52.44;102672.34;5034764;28;20049;-58
2022/03/01 08:34:22;;;;;;;16.17;8.73;;;;;;;3.71;51.57;102675.75;5049866;28;20039;-59
2022/03/01 08:36:48;;;;;;;17.55;9.93;;;;;;;3.73;51.49;102678.41;5047909;28;20112;-59
2022/03/01 08:39:13;;;;;;;15.90;9.10;;;;;;;3.83;51.57;102670.16;5034507;28;20115;-59
2022/03/01 08:41:39;;;;;;;16.15;9.20;;;;;;;4.01;51.32;102676.16;5036451;28;20037;-59
2022/03/01 08:44:05;;;;;;;17.48;8.25;;;;;;;4.08;51.31;102675.59;5039252;28;20095;-60
2022/03/01 08:46:30;;;;;;;23.73;11.07;;;;;;;4.18;51.20;102672.53;5051150;28;20063;-59
2022/03/01 08:48:56;;;;;;;21.23;8.95;;;;;;;4.24;50.74;102666.69;5054506;28;20036;-60
2022/03/01 08:51:23;;;;;;;21.23;9.93;;;;;;;4.39;50.65;102663.84;5040159;28;20037;-59
2022/03/01 08:53:50;;;;;;;21.42;10.23;;;;;;;4.37;50.47;102662.88;5054442;28;20116;-59
2022/03/01 08:56:16;;;;;;;19.90;10.30;;;;;;;4.43;50.54;102658.81;5049854;28;20377;-59
2022/03/01 08:58:43;;;;;;;18.50;8.93;;;;;;;4.54;50.41;102659.22;5037656;28;20030;-59
2022/03/01 09:01:09;;;;;;;18.92;9.48;;;;;;;4.58;50.16;102650.69;5049083;28;20131;-59
2022/03/01 09:03:35;;;;;;;16.67;9.00;;;;;;;4.67;50.14;102650.19;5062197;28;20120;-59
2022/03/01 09:06:06;;;;;;;18.67;9.30;;;;;;;4.86;50.03;102643.94;5029063;28;20041;-59
2022/03/01 09:08:33;;;;;;;28.92;15.27;;;;;;;4.97;50.06;102650.44;5049248;28;20109;-59
2022/03/01 09:10:59;;;;;;;17.42;9.75;;;;;;;5.04;49.53;102644.63;5049305;28;20040;-59
2022/03/01 09:13:24;;;;;;;16.58;9.93;;;;;;;5.15;49.04;102640.72;5009971;28;20025;-58
2022/03/01 09:15:50;;;;;;;14.95;8.63;;;;;;;5.29;48.90;102640.31;5033494;28;20048;-57
2022/03/01 09:18:15;;;;;;;13.23;7.82;;;;;;;5.27;48.42;102636.78;5053726;28;20536;-58
2022/03/01 09:20:41;;;;;;;14.15;7.95;;;;;;;5.35;48.28;102638.81;5052549;28;20055;-57
2022/03/01 09:23:06;;;;;;;14.75;7.60;;;;;;;5.48;48.15;102636.66;5037840;28;20033;-58
2022/03/01 09:25:32;;;;;;;12.65;6.85;;;;;;;5.50;47.83;102634.97;5052754;28;20079;-57
2022/03/01 09:27:57;;;;;;;16.25;9.40;;;;;;;5.56;47.54;102641.28;5053673;28;20491;-57
2022/03/01 09:30:22;;;;;;;12.15;7.18;;;;;;;5.63;47.10;102631.97;5047324;28;20506;-58
2022/03/01 09:32:48;;;;;;;11.65;7.43;;;;;;;5.69;47.18;102630.44;5033666;28;20038;-57
2022/03/01 09:35:14;;;;;;;13.55;7.45;;;;;;;5.68;46.40;102628.66;5040279;28;20365;-58
2022/03/01 09:37:41;;;;;;;11.68;6.82;;;;;;;5.81;46.74;102629.09;5045483;28;20033;-57
2022/03/01 09:40:08;;;;;;;12.05;6.07;;;;;;;5.89;46.69;102625.00;5032786;28;20041;-57
2022/03/01 09:42:34;;;;;;;10.88;5.97;;;;;;;5.94;46.26;102628.69;5015776;28;20041;-58
2022/03/01 09:45:01;;;;;;;12.13;6.32;;;;;;;6.04;46.08;102620.31;5035389;28;20033;-58
2022/03/01 09:47:27;;;;;;;8.23;5.55;;;;;;;6.04;45.81;102617.72;5036333;28;20041;-58
2022/03/01 09:49:52;;;;;;;10.02;6.18;;;;;;;6.15;45.49;102621.56;5037527;28;20389;-58
2022/03/01 09:52:20;;;;;;;10.65;4.95;;;;;;;6.13;45.27;102618.00;5053147;28;20366;-58
2022/03/01 09:54:49;;;;;;;11.38;5.55;;;;;;;6.08;44.41;102611.75;5037797;28;20057;-58
2022/03/01 09:57:16;;;;;;;7.93;4.57;;;;;;;6.10;44.68;102607.50;5016619;28;20033;-58
2022/03/01 09:59:42;;;;;;;10.88;5.47;;;;;;;6.15;44.96;102603.28;5015797;28;20040;-58
2022/03/01 10:02:08;;;;;;;9.30;5.32;;;;;;;6.28;44.72;102601.06;5032586;28;20026;-59
2022/03/01 10:04:57;;;;;;;14.55;6.32;;;;;;;6.23;44.33;102602.66;5037759;28;20096;-59
2022/03/01 10:07:25;;;;;;;7.88;4.40;;;;;;;6.25;43.39;102608.78;5039958;28;20111;-59
2022/03/01 10:09:52;;;;;;;8.23;4.40;;;;;;;6.03;42.39;102602.03;5053284;28;20530;-59
2022/03/01 10:12:25;;;;;;;6.97;3.92;;;;;;;6.08;41.89;102598.72;5037537;28;20477;-59
2022/03/01 10:15:02;;;;;;;9.27;5.35;;;;;;;6.15;43.54;102595.47;5033470;28;20496;-59
2022/03/01 10:17:45;;;;;;;17.08;7.70;;;;;;;6.32;42.69;102587.28;5036733;28;20021;-59
2022/03/01 10:20:19;;;;;;;9.60;5.50;;;;;;;6.39;42.60;102587.50;5035552;28;20132;-58
2022/03/01 10:22:46;;;;;;;8.15;4.70;;;;;;;6.46;43.49;102585.94;5046374;28;20040;-58
2022/03/01 10:25:14;;;;;;;6.68;4.38;;;;;;;6.38;42.50;102588.34;5031884;28;20045;-58
2022/03/01 10:27:40;;;;;;;6.82;3.80;;;;;;;6.45;42.52;102581.56;5033370;28;20033;-58
2022/03/01 10:30:07;;;;;;;11.55;4.43;;;;;;;6.50;42.86;102577.38;5038971;28;20021;-58
2022/03/01 10:32:33;;;;;;;7.30;4.70;;;;;;;6.56;42.78;102577.56;5039074;28;20049;-58
2022/03/01 10:35:01;;;;;;;8.20;4.43;;;;;;;6.71;42.64;102573.66;5038710;28;20029;-58
2022/03/01 10:37:32;;;;;;;7.65;4.57;;;;;;;6.71;42.09;102573.66;5040733;28;20034;-58
2022/03/01 10:40:20;;;;;;;7.30;3.80;;;;;;;6.85;40.99;102564.47;5032288;28;20037;-58
2022/03/01 10:43:09;;;;;;;9.25;4.45;;;;;;;6.97;41.19;102563.91;5033128;28;20033;-58
2022/03/01 10:45:36;;;;;;;9.38;5.22;;;;;;;7.05;41.91;102552.81;5044906;28;20457;-58
2022/03/01 10:48:03;;;;;;;9.43;5.43;;;;;;;7.16;42.02;102558.34;5044382;28;20025;-58
2022/03/01 10:50:29;;;;;;;8.10;4.95;;;;;;;7.20;41.68;102544.50;5015741;28;20044;-58
2022/03/01 10:52:54;;;;;;;8.23;4.25;;;;;;;7.24;41.44;102548.09;5038747;28;20032;-58
2022/03/01 10:55:28;;;;;;;9.27;4.70;;;;;;;7.30;41.48;102548.25;5045901;28;20056;-58
2022/03/01 10:58:02;;;;;;;8.95;4.50;;;;;;;7.31;40.94;102542.19;5044822;28;20060;-58
2022/03/01 11:00:29;;;;;;;7.57;4.38;;;;;;;7.34;41.29;102547.47;5032532;28;20029;-58
2022/03/01 11:02:54;;;;;;;7.55;4.28;;;;;;;7.37;41.16;102532.75;5032814;28;20029;-59
2022/03/01 11:05:20;;;;;;;7.97;4.57;;;;;;;7.34;40.93;102534.41;5036381;28;20368;-58
2022/03/01 11:07:48;;;;;;;10.13;4.47;;;;;;;7.32;40.20;102529.16;5036728;28;20056;-58
2022/03/01 11:10:15;;;;;;;9.30;4.60;;;;;;;7.34;40.63;102522.25;5035234;28;20038;-59
2022/03/01 11:12:42;;;;;;;7.35;4.13;;;;;;;7.25;40.31;102515.88;5018405;28;20034;-58